sensor_id;sensor_type;location;lat;lon;timestamp;pressure;altitude;pressure_sealevel;temperature;humidity
58739;BME280;44512;53.046;18.604;2023-11-21T00:03:28;101069.55;;;3.31;70.10
58739;BME280;44512;53.046;18.604;2023-11-21T00:13:57;101057.55;;;3.35;69.95
58739;BME280;44512;53.046;18.604;2023-11-21T00:24:25;101068.80;;;3.38;69.71
58739;BME280;44512;53.046;18.604;2023-11-21T00:34:54;101086.85;;;3.36;69.56
58739;BME280;44512;53.046;18.604;2023-11-21T00:45:22;101100.82;;;3.21;69.66
58739;BME280;44512;53.046;18.604;2023-11-21T00:55:51;101104.89;;;3.15;69.74
58739;BME280;44512;53.046;18.604;2023-11-21T01:06:19;101116.89;;;3.11;69.63
58739;BME280;44512;53.046;18.604;2023-11-21T01:16:47;101127.44;;;3.12;69.90
58739;BME280;44512;53.046;18.604;2023-11-21T01:27:16;101132.78;;;3.12;69.86
58739;BME280;44512;53.046;18.604;2023-11-21T01:37:44;101147.14;;;3.11;70.03
58739;BME280;44512;53.046;18.604;2023-11-21T01:48:13;101135.87;;;3.08;69.87
58739;BME280;44512;53.046;18.604;2023-11-21T01:58:42;101141.80;;;3.11;69.62
58739;BME280;44512;53.046;18.604;2023-11-21T02:09:10;101144.32;;;3.03;69.50
58739;BME280;44512;53.046;18.604;2023-11-21T02:19:38;101151.66;;;3.01;69.69
58739;BME280;44512;53.046;18.604;2023-11-21T02:30:07;101156.59;;;3.06;69.49
58739;BME280;44512;53.046;18.604;2023-11-21T02:40:35;101168.54;;;2.92;69.38
58739;BME280;44512;53.046;18.604;2023-11-21T02:51:04;101193.88;;;2.98;69.16
58739;BME280;44512;53.046;18.604;2023-11-21T03:01:32;101206.23;;;2.89;69.05
58739;BME280;44512;53.046;18.604;2023-11-21T03:12:00;101209.63;;;2.91;69.02
58739;BME280;44512;53.046;18.604;2023-11-21T03:22:29;101206.96;;;2.91;68.81
58739;BME280;44512;53.046;18.604;2023-11-21T03:32:57;101211.45;;;2.81;68.80
58739;BME280;44512;53.046;18.604;2023-11-21T03:43:26;101226.07;;;2.77;68.87
58739;BME280;44512;53.046;18.604;2023-11-21T03:53:54;101211.28;;;2.73;68.36
58739;BME280;44512;53.046;18.604;2023-11-21T04:04:22;101223.39;;;2.77;68.09
58739;BME280;44512;53.046;18.604;2023-11-21T04:14:51;101223.95;;;2.71;67.86
58739;BME280;44512;53.046;18.604;2023-11-21T04:25:19;101246.14;;;2.61;67.75
58739;BME280;44512;53.046;18.604;2023-11-21T04:35:48;101246.55;;;2.57;67.54
58739;BME280;44512;53.046;18.604;2023-11-21T04:46:16;101275.24;;;2.55;67.13
58739;BME280;44512;53.046;18.604;2023-11-21T04:56:45;101290.00;;;2.49;67.07
58739;BME280;44512;53.046;18.604;2023-11-21T05:07:13;101299.40;;;2.44;66.97
58739;BME280;44512;53.046;18.604;2023-11-21T05:17:42;101315.03;;;2.48;66.87
58739;BME280;44512;53.046;18.604;2023-11-21T05:28:10;101331.86;;;2.39;66.58
58739;BME280;44512;53.046;18.604;2023-11-21T05:38:38;101341.70;;;2.39;66.76
58739;BME280;44512;53.046;18.604;2023-11-21T05:49:07;101346.91;;;2.40;66.49
58739;BME280;44512;53.046;18.604;2023-11-21T05:59:35;101351.79;;;2.35;66.52
58739;BME280;44512;53.046;18.604;2023-11-21T06:10:08;101378.75;;;2.32;66.31
58739;BME280;44512;53.046;18.604;2023-11-21T06:20:32;101392.64;;;2.26;66.57
58739;BME280;44512;53.046;18.604;2023-11-21T06:31:01;101406.85;;;2.26;66.45
58739;BME280;44512;53.046;18.604;2023-11-21T06:41:29;101427.13;;;2.29;65.94
58739;BME280;44512;53.046;18.604;2023-11-21T06:51:57;101444.05;;;2.18;65.93
58739;BME280;44512;53.046;18.604;2023-11-21T07:02:26;101463.07;;;2.25;65.58
58739;BME280;44512;53.046;18.604;2023-11-21T07:12:54;101472.78;;;2.26;65.57
58739;BME280;44512;53.046;18.604;2023-11-21T07:23:23;101481.31;;;2.20;65.55
58739;BME280;44512;53.046;18.604;2023-11-21T07:33:51;101497.89;;;2.02;65.52
58739;BME280;44512;53.046;18.604;2023-11-21T07:44:20;101508.77;;;2.11;65.28
58739;BME280;44512;53.046;18.604;2023-11-21T07:54:48;101518.47;;;2.12;64.79
58739;BME280;44512;53.046;18.604;2023-11-21T08:05:16;101525.91;;;2.08;64.66
58739;BME280;44512;53.046;18.604;2023-11-21T08:15:45;101528.92;;;2.15;64.42
58739;BME280;44512;53.046;18.604;2023-11-21T08:26:16;101544.44;;;2.21;64.48
58739;BME280;44512;53.046;18.604;2023-11-21T08:36:42;101541.29;;;2.16;64.05
58739;BME280;44512;53.046;18.604;2023-11-21T08:47:10;101532.77;;;2.22;64.11
58739;BME280;44512;53.046;18.604;2023-11-21T08:57:39;101538.12;;;2.22;64.10
58739;BME280;44512;53.046;18.604;2023-11-21T09:08:07;101556.10;;;2.20;64.12
58739;BME280;44512;53.046;18.604;2023-11-21T09:18:35;101547.62;;;2.15;63.78
58739;BME280;44512;53.046;18.604;2023-11-21T09:29:04;101567.29;;;2.14;63.89
58739;BME280;44512;53.046;18.604;2023-11-21T09:39:33;101582.58;;;2.12;63.84
58739;BME280;44512;53.046;18.604;2023-11-21T09:50:01;101587.78;;;2.24;63.65
58739;BME280;44512;53.046;18.604;2023-11-21T10:00:30;101587.78;;;2.24;63.55
58739;BME280;44512;53.046;18.604;2023-11-21T10:10:58;101603.44;;;2.29;63.09
58739;BME280;44512;53.046;18.604;2023-11-21T10:21:26;101591.40;;;2.34;62.92
58739;BME280;44512;53.046;18.604;2023-11-21T10:31:54;101609.36;;;2.32;62.62
58739;BME280;44512;53.046;18.604;2023-11-21T10:42:23;101615.30;;;2.36;62.78
58739;BME280;44512;53.046;18.604;2023-11-21T10:58:00;101634.75;;;2.38;62.87
58739;BME280;44512;53.046;18.604;2023-11-21T11:08:26;101632.29;;;2.46;62.62
58739;BME280;44512;53.046;18.604;2023-11-21T11:18:54;101639.59;;;2.44;62.67
58739;BME280;44512;53.046;18.604;2023-11-21T11:39:51;101642.48;;;2.52;62.55
58739;BME280;44512;53.046;18.604;2023-11-21T11:50:19;101664.63;;;2.43;62.46
58739;BME280;44512;53.046;18.604;2023-11-21T12:00:49;101683.06;;;2.46;62.43
58739;BME280;44512;53.046;18.604;2023-11-21T12:11:17;101689.16;;;2.48;62.14
58739;BME280;44512;53.046;18.604;2023-11-21T12:21:44;101700.92;;;2.46;62.15
58739;BME280;44512;53.046;18.604;2023-11-21T12:32:13;101706.99;;;2.37;62.16
58739;BME280;44512;53.046;18.604;2023-11-21T12:42:42;101710.30;;;2.29;61.59
58739;BME280;44512;53.046;18.604;2023-11-21T12:53:11;101706.66;;;2.30;61.54
58739;BME280;44512;53.046;18.604;2023-11-21T13:03:39;101719.15;;;2.41;61.41
58739;BME280;44512;53.046;18.604;2023-11-21T13:14:07;101733.22;;;2.43;61.13
58739;BME280;44512;53.046;18.604;2023-11-21T13:24:35;101749.75;;;2.37;60.96
58739;BME280;44512;53.046;18.604;2023-11-21T13:35:04;101763.96;;;2.26;60.94
58739;BME280;44512;53.046;18.604;2023-11-21T13:45:32;101772.73;;;2.28;60.77
58739;BME280;44512;53.046;18.604;2023-11-21T13:56:00;101791.42;;;2.39;60.66
58739;BME280;44512;53.046;18.604;2023-11-21T14:06:29;101813.29;;;2.44;60.24
58739;BME280;44512;53.046;18.604;2023-11-21T14:16:57;101832.49;;;2.38;59.93
58739;BME280;44512;53.046;18.604;2023-11-21T14:27:26;101838.27;;;2.32;60.03
58739;BME280;44512;53.046;18.604;2023-11-21T14:37:54;101848.02;;;2.33;60.26
58739;BME280;44512;53.046;18.604;2023-11-21T14:48:22;101854.80;;;2.26;59.69
58739;BME280;44512;53.046;18.604;2023-11-21T14:58:51;101876.94;;;2.39;59.34
58739;BME280;44512;53.046;18.604;2023-11-21T15:09:19;101872.07;;;2.33;59.40
58739;BME280;44512;53.046;18.604;2023-11-21T15:19:48;101898.87;;;2.20;59.41
58739;BME280;44512;53.046;18.604;2023-11-21T15:30:16;101913.83;;;2.23;59.42
58739;BME280;44512;53.046;18.604;2023-11-21T15:40:45;101915.26;;;2.27;58.73
58739;BME280;44512;53.046;18.604;2023-11-21T15:51:13;101924.01;;;2.18;58.18
58739;BME280;44512;53.046;18.604;2023-11-21T16:01:41;101933.72;;;2.19;57.96
58739;BME280;44512;53.046;18.604;2023-11-21T16:12:10;101965.77;;;2.19;57.62
58739;BME280;44512;53.046;18.604;2023-11-21T16:22:39;101972.59;;;2.23;57.02
58739;BME280;44512;53.046;18.604;2023-11-21T16:33:06;101980.14;;;2.29;57.05
58739;BME280;44512;53.046;18.604;2023-11-21T16:43:35;101984.13;;;2.23;57.12
58739;BME280;44512;53.046;18.604;2023-11-21T16:54:04;102000.21;;;2.11;56.86
58739;BME280;44512;53.046;18.604;2023-11-21T17:04:32;102013.90;;;2.06;56.48
58739;BME280;44512;53.046;18.604;2023-11-21T17:15:00;102018.64;;;2.02;56.04
58739;BME280;44512;53.046;18.604;2023-11-21T17:25:29;102028.29;;;1.92;56.10
58739;BME280;44512;53.046;18.604;2023-11-21T17:35:57;102038.79;;;1.82;55.98
58739;BME280;44512;53.046;18.604;2023-11-21T17:46:25;102050.65;;;1.78;55.82
58739;BME280;44512;53.046;18.604;2023-11-21T17:56:54;102064.88;;;1.66;56.00
58739;BME280;44512;53.046;18.604;2023-11-21T18:07:22;102081.23;;;1.62;56.13
58739;BME280;44512;53.046;18.604;2023-11-21T18:17:51;102095.30;;;1.64;56.16
58739;BME280;44512;53.046;18.604;2023-11-21T18:28:19;102127.57;;;1.61;56.30
58739;BME280;44512;53.046;18.604;2023-11-21T18:38:48;102141.74;;;1.48;56.34
58739;BME280;44512;53.046;18.604;2023-11-21T18:49:16;102165.77;;;1.48;56.40
58739;BME280;44512;53.046;18.604;2023-11-21T18:59:44;102185.07;;;1.39;56.54
58739;BME280;44512;53.046;18.604;2023-11-21T19:10:13;102205.56;;;1.39;56.40
58739;BME280;44512;53.046;18.604;2023-11-21T19:20:41;102234.78;;;1.27;56.48
58739;BME280;44512;53.046;18.604;2023-11-21T19:31:16;102251.32;;;1.20;56.44
58739;BME280;44512;53.046;18.604;2023-11-21T19:41:38;102279.59;;;1.22;56.44
58739;BME280;44512;53.046;18.604;2023-11-21T19:52:07;102295.34;;;1.13;56.36
58739;BME280;44512;53.046;18.604;2023-11-21T20:02:35;102304.66;;;1.20;56.20
58739;BME280;44512;53.046;18.604;2023-11-21T20:13:03;102313.60;;;1.19;56.08
58739;BME280;44512;53.046;18.604;2023-11-21T20:23:32;102327.16;;;1.16;55.88
58739;BME280;44512;53.046;18.604;2023-11-21T20:34:00;102342.89;;;1.06;55.78
58739;BME280;44512;53.046;18.604;2023-11-21T20:44:29;102364.49;;;1.16;55.40
58739;BME280;44512;53.046;18.604;2023-11-21T20:54:57;102376.99;;;1.01;55.44
58739;BME280;44512;53.046;18.604;2023-11-21T21:05:25;102381.71;;;0.83;55.60
58739;BME280;44512;53.046;18.604;2023-11-21T21:15:54;102386.98;;;0.97;55.22
58739;BME280;44512;53.046;18.604;2023-11-21T21:26:22;102398.83;;;0.93;54.77
58739;BME280;44512;53.046;18.604;2023-11-21T21:36:51;102418.16;;;0.68;54.98
58739;BME280;44512;53.046;18.604;2023-11-21T21:47:19;102442.82;;;0.58;54.92
58739;BME280;44512;53.046;18.604;2023-11-21T21:57:47;102452.88;;;0.67;54.78
58739;BME280;44512;53.046;18.604;2023-11-21T22:08:16;102469.81;;;0.51;54.86
58739;BME280;44512;53.046;18.604;2023-11-21T22:18:44;102472.88;;;0.60;54.65
58739;BME280;44512;53.046;18.604;2023-11-21T22:29:13;102488.76;;;0.61;54.45
58739;BME280;44512;53.046;18.604;2023-11-21T22:39:41;102494.57;;;0.54;54.59
58739;BME280;44512;53.046;18.604;2023-11-21T22:50:10;102510.41;;;0.41;54.78
58739;BME280;44512;53.046;18.604;2023-11-21T23:00:38;102530.42;;;0.18;55.25
58739;BME280;44512;53.046;18.604;2023-11-21T23:11:06;102511.02;;;0.16;55.55
58739;BME280;44512;53.046;18.604;2023-11-21T23:21:35;102517.69;;;0.23;55.74
58739;BME280;44512;53.046;18.604;2023-11-21T23:32:03;102506.88;;;0.10;55.89
58739;BME280;44512;53.046;18.604;2023-11-21T23:42:32;102553.80;;;0.13;56.74
58739;BME280;44512;53.046;18.604;2023-11-21T23:53:00;102554.32;;;0.04;57.37
